Time;durP1;ratioP1;P1;durP2;ratioP2;P2;SDS_P1;SDS_P2;PMS_P1;PMS_P2;Temp;Humidity;BMP_temperature;BMP_pressure;BME280_temperature;BME280_humidity;BME280_pressure;Samples;Min_cycle;Max_cycle;Signal;HPM_P1;HPM_P2
2023/12/09 00:00:40;;;;;;;21.38;15.02;;;16.30;99.90;;;;;;4592433;19;20014;-74
2023/12/09 00:02:34;;;;;;;24.88;16.33;;;16.30;99.90;;;;;;4591825;19;20014;-74
2023/12/09 00:04:10;;;;;;;25.48;16.23;;;16.20;99.90;;;;;;4592015;19;20454;-75
2023/12/09 00:05:44;;;;;;;23.38;14.10;;;16.30;99.90;;;;;;4590975;19;20022;-75
2023/12/09 00:07:19;;;;;;;24.58;15.95;;;16.20;99.90;;;;;;4590530;19;20010;-74
2023/12/09 00:08:54;;;;;;;23.95;15.27;;;16.20;99.90;;;;;;4591758;19;20010;-74
2023/12/09 00:10:28;;;;;;;22.75;15.40;;;16.20;99.90;;;;;;4592167;19;20002;-74
2023/12/09 00:12:04;;;;;;;24.85;16.45;;;16.20;99.90;;;;;;4591952;19;20025;-75
2023/12/09 00:13:40;;;;;;;26.10;16.35;;;16.20;99.90;;;;;;4591904;19;20317;-75
2023/12/09 00:15:14;;;;;;;23.23;15.95;;;16.20;99.90;;;;;;4592020;19;20410;-75
2023/12/09 00:16:51;;;;;;;22.38;15.00;;;16.20;99.90;;;;;;4592049;19;20003;-75
2023/12/09 00:18:26;;;;;;;26.88;16.27;;;16.20;99.90;;;;;;4590439;19;20007;-75
2023/12/09 00:20:04;;;;;;;23.10;15.75;;;16.20;99.90;;;;;;4591411;19;20027;-75
2023/12/09 00:21:39;;;;;;;22.58;14.18;;;16.10;99.90;;;;;;4590016;19;20006;-75
2023/12/09 00:23:15;;;;;;;23.48;15.23;;;16.10;99.90;;;;;;4591258;19;20320;-75
2023/12/09 00:24:50;;;;;;;23.45;15.90;;;16.10;99.90;;;;;;4591530;19;20017;-75
2023/12/09 00:26:24;;;;;;;22.15;15.00;;;16.10;99.90;;;;;;4590324;19;20006;-75
2023/12/09 00:28:00;;;;;;;22.70;15.45;;;16.10;99.90;;;;;;4591897;19;20002;-75
2023/12/09 00:29:35;;;;;;;24.00;16.13;;;16.10;99.90;;;;;;4593003;19;20438;-75
2023/12/09 00:31:10;;;;;;;24.83;16.42;;;16.10;99.90;;;;;;4596381;19;19999;-75
2023/12/09 00:32:46;;;;;;;22.40;14.13;;;16.00;99.90;;;;;;4596136;19;20070;-75
2023/12/09 00:34:22;;;;;;;21.38;14.30;;;16.10;99.90;;;;;;4596035;19;20013;-75
2023/12/09 00:35:56;;;;;;;20.90;14.25;;;16.00;99.90;;;;;;4594942;19;20027;-75
2023/12/09 00:37:33;;;;;;;22.75;14.73;;;16.00;99.90;;;;;;4596032;19;20021;-75
2023/12/09 00:39:08;;;;;;;20.25;14.90;;;16.00;99.90;;;;;;4595930;19;20351;-74
2023/12/09 00:40:43;;;;;;;21.50;15.00;;;16.00;99.90;;;;;;4595884;19;20309;-74
2023/12/09 00:42:18;;;;;;;23.20;14.98;;;16.00;99.90;;;;;;4594462;19;20516;-74
2023/12/09 00:43:52;;;;;;;22.48;14.40;;;16.00;99.90;;;;;;4596080;19;20005;-74
2023/12/09 00:45:26;;;;;;;24.67;14.70;;;16.00;99.90;;;;;;4595318;19;20002;-75
2023/12/09 00:47:01;;;;;;;23.33;14.57;;;16.00;99.90;;;;;;4596304;19;20309;-75
2023/12/09 00:48:35;;;;;;;21.48;14.75;;;15.90;99.90;;;;;;4595778;19;20025;-74
2023/12/09 00:50:10;;;;;;;21.02;14.10;;;15.90;99.90;;;;;;4595735;19;20081;-75
2023/12/09 00:51:46;;;;;;;19.70;13.55;;;16.00;99.90;;;;;;4595732;19;20010;-75
2023/12/09 00:53:20;;;;;;;21.60;14.13;;;15.90;99.90;;;;;;4595631;19;20354;-74
2023/12/09 00:54:54;;;;;;;20.25;13.80;;;15.90;99.90;;;;;;4595604;19;20306;-75
2023/12/09 00:56:30;;;;;;;21.25;14.40;;;15.90;99.90;;;;;;4593974;19;20010;-75
2023/12/09 00:58:04;;;;;;;18.80;13.07;;;15.90;99.90;;;;;;4595520;19;20002;-75
2023/12/09 00:59:38;;;;;;;21.38;14.73;;;15.90;99.90;;;;;;4595782;19;20531;-74
2023/12/09 01:16:56;;;;;;;21.90;14.05;;;15.70;99.90;;;;;;4571735;19;20356;-74
2023/12/09 01:18:31;;;;;;;21.38;14.32;;;15.70;99.90;;;;;;4595042;19;20003;-76
2023/12/09 01:20:06;;;;;;;21.90;14.07;;;15.80;99.90;;;;;;4595071;19;20021;-76
2023/12/09 01:21:40;;;;;;;21.00;13.35;;;15.70;99.90;;;;;;4594343;19;20003;-75
2023/12/09 01:23:15;;;;;;;21.70;14.07;;;15.70;99.90;;;;;;4595743;19;20020;-75
2023/12/09 01:24:50;;;;;;;22.30;13.70;;;15.70;99.90;;;;;;4594849;19;20013;-75
2023/12/09 01:26:25;;;;;;;23.13;14.48;;;15.70;99.90;;;;;;4593112;19;20078;-75
2023/12/09 01:28:01;;;;;;;22.10;14.25;;;15.70;99.90;;;;;;4593697;19;20483;-76
2023/12/09 01:29:36;;;;;;;20.35;13.50;;;15.70;99.90;;;;;;4593592;19;20003;-74
2023/12/09 01:31:11;;;;;;;18.60;13.07;;;15.70;99.90;;;;;;4594621;19;20362;-75
2023/12/09 01:32:46;;;;;;;20.65;13.60;;;15.70;99.90;;;;;;4594884;19;20006;-75
2023/12/09 01:34:21;;;;;;;20.60;13.88;;;15.70;99.90;;;;;;4594812;19;20014;-74
2023/12/09 01:35:56;;;;;;;19.52;13.93;;;15.60;99.90;;;;;;4594780;19;20003;-75
2023/12/09 01:37:33;;;;;;;20.67;13.82;;;15.70;99.90;;;;;;4593292;19;20017;-75
2023/12/09 01:39:09;;;;;;;20.10;13.98;;;15.70;99.90;;;;;;4594747;19;19999;-75
2023/12/09 01:40:43;;;;;;;21.42;12.52;;;15.60;99.90;;;;;;4593948;19;20002;-76
2023/12/09 01:42:19;;;;;;;20.33;13.60;;;15.60;99.90;;;;;;4593172;19;20038;-74
2023/12/09 01:43:54;;;;;;;19.85;13.55;;;15.70;99.90;;;;;;4594564;19;20012;-73
2023/12/09 01:45:28;;;;;;;21.70;14.63;;;15.60;99.90;;;;;;4594608;19;19994;-75
2023/12/09 01:47:03;;;;;;;18.60;12.38;;;15.60;99.90;;;;;;4592535;19;20012;-74
2023/12/09 01:48:40;;;;;;;18.10;12.32;;;15.60;99.90;;;;;;4593061;19;20330;-76
2023/12/09 01:50:14;;;;;;;21.27;13.60;;;15.60;99.90;;;;;;4594100;19;20006;-73
2023/12/09 01:51:50;;;;;;;20.02;13.77;;;15.60;99.90;;;;;;4594791;19;20028;-74
2023/12/09 01:53:25;;;;;;;19.60;12.90;;;15.60;99.90;;;;;;4593088;19;20073;-75
2023/12/09 01:55:00;;;;;;;20.80;13.20;;;15.60;99.90;;;;;;4594358;19;20468;-73
2023/12/09 01:56:35;;;;;;;19.60;12.88;;;15.60;99.90;;;;;;4592520;19;20009;-74
2023/12/09 01:58:10;;;;;;;20.85;13.57;;;15.60;99.90;;;;;;4594216;19;20435;-75
2023/12/09 01:59:44;;;;;;;18.35;12.43;;;15.50;99.90;;;;;;4594260;19;20005;-75
2023/12/09 02:01:20;;;;;;;20.02;13.38;;;15.50;99.90;;;;;;4594033;19;20007;-75
2023/12/09 02:02:54;;;;;;;20.48;13.60;;;15.50;99.90;;;;;;4594175;19;20006;-75
2023/12/09 02:04:29;;;;;;;18.48;12.30;;;15.60;99.90;;;;;;4594190;19;20014;-75
2023/12/09 02:06:04;;;;;;;18.63;13.05;;;15.50;99.90;;;;;;4592895;19;20337;-75
2023/12/09 02:07:38;;;;;;;20.13;13.10;;;15.50;99.90;;;;;;4593765;19;20020;-74
2023/12/09 02:09:13;;;;;;;18.10;11.95;;;15.50;99.90;;;;;;4594001;19;20002;-75
2023/12/09 02:10:52;;;;;;;17.48;12.15;;;15.50;99.90;;;;;;4592854;19;20023;-75
2023/12/09 02:12:54;;;;;;;17.48;11.93;;;15.50;99.90;;;;;;4593807;19;20074;-75
2023/12/09 02:14:42;;;;;;;19.13;13.00;;;15.50;99.90;;;;;;4594035;19;20032;-75
2023/12/09 02:16:23;;;;;;;18.58;12.60;;;15.50;99.90;;;;;;4592254;19;20018;-75
2023/12/09 02:18:03;;;;;;;18.35;12.50;;;15.50;99.90;;;;;;4592949;19;20006;-75
2023/12/09 02:19:39;;;;;;;17.15;12.05;;;15.50;99.90;;;;;;4592626;19;20018;-75
2023/12/09 02:21:13;;;;;;;17.60;12.82;;;15.50;99.90;;;;;;4593206;19;20441;-75
2023/12/09 02:22:47;;;;;;;18.42;12.82;;;15.40;99.90;;;;;;4593812;19;20387;-75
2023/12/09 02:24:23;;;;;;;19.63;13.27;;;15.50;99.90;;;;;;4594089;19;20425;-75
2023/12/09 02:25:58;;;;;;;20.25;12.85;;;15.50;99.90;;;;;;4594042;19;20457;-74
2023/12/09 02:27:37;;;;;;;16.67;12.63;;;15.50;99.90;;;;;;4591125;19;20027;-75
2023/12/09 02:29:13;;;;;;;20.15;13.63;;;15.40;99.90;;;;;;4592403;19;20406;-75
2023/12/09 02:31:04;;;;;;;18.25;13.65;;;15.40;99.90;;;;;;4593365;19;19998;-75
2023/12/09 02:32:39;;;;;;;18.77;12.20;;;15.50;99.90;;;;;;4592388;19;20014;-75
2023/12/09 02:34:17;;;;;;;20.65;12.80;;;15.40;99.90;;;;;;4592300;19;20014;-75
2023/12/09 02:35:54;;;;;;;17.52;12.65;;;15.40;99.90;;;;;;4593130;19;20006;-75
2023/12/09 02:37:29;;;;;;;17.55;11.57;;;15.40;99.90;;;;;;4590980;19;20499;-75
2023/12/09 02:39:06;;;;;;;19.30;12.65;;;15.40;99.90;;;;;;4592179;19;20007;-75
2023/12/09 02:40:40;;;;;;;18.20;12.50;;;15.40;99.90;;;;;;4593066;19;20302;-75
2023/12/09 02:42:14;;;;;;;20.58;13.02;;;15.40;99.90;;;;;;4591442;19;20434;-75
2023/12/09 02:43:50;;;;;;;19.55;13.48;;;15.40;99.90;;;;;;4593077;19;20010;-75
2023/12/09 02:45:25;;;;;;;18.65;12.98;;;15.40;99.90;;;;;;4593265;19;19999;-75
2023/12/09 02:47:00;;;;;;;17.67;12.70;;;15.40;99.90;;;;;;4591182;19;20011;-75
2023/12/09 02:48:35;;;;;;;17.83;11.60;;;15.40;99.90;;;;;;4592916;19;20006;-75
2023/12/09 02:50:09;;;;;;;18.15;11.82;;;15.40;99.90;;;;;;4593222;19;20008;-75
2023/12/09 02:51:43;;;;;;;17.45;12.57;;;15.40;99.90;;;;;;4593184;19;20374;-75
2023/12/09 02:53:18;;;;;;;17.13;11.73;;;15.40;99.90;;;;;;4593426;19;20006;-75
2023/12/09 02:54:53;;;;;;;16.63;12.02;;;15.30;99.90;;;;;;4593121;19;20073;-75
2023/12/09 02:56:28;;;;;;;19.30;12.82;;;15.40;99.90;;;;;;4592708;19;20006;-75
2023/12/09 02:58:04;;;;;;;16.63;11.65;;;15.30;99.90;;;;;;4593365;19;20006;-75
2023/12/09 02:59:38;;;;;;;18.02;11.63;;;15.30;99.90;;;;;;4593321;19;20003;-75
2023/12/09 03:01:12;;;;;;;17.33;11.90;;;15.40;99.90;;;;;;4592841;19;20006;-75
2023/12/09 03:02:47;;;;;;;16.85;12.10;;;15.30;99.90;;;;;;4593294;19;20294;-75
2023/12/09 03:04:22;;;;;;;19.63;11.88;;;15.30;99.90;;;;;;4592946;19;19999;-75
2023/12/09 03:05:57;;;;;;;15.68;11.40;;;15.30;99.90;;;;;;4592975;19;20007;-75
2023/12/09 03:07:33;;;;;;;17.52;12.23;;;15.30;99.90;;;;;;4591797;19;20033;-75
2023/12/09 03:09:08;;;;;;;16.20;11.43;;;15.30;99.90;;;;;;4592914;19;20006;-75
2023/12/09 03:10:42;;;;;;;16.38;11.35;;;15.30;99.90;;;;;;4592817;19;20006;-75
2023/12/09 03:12:17;;;;;;;16.60;11.75;;;15.30;99.90;;;;;;4592919;19;19991;-75
2023/12/09 03:13:51;;;;;;;16.58;11.98;;;15.30;99.90;;;;;;4592724;19;20002;-75
2023/12/09 03:15:25;;;;;;;16.33;11.38;;;15.30;99.90;;;;;;4593009;19;20020;-75
2023/12/09 03:17:01;;;;;;;16.92;11.63;;;15.30;99.90;;;;;;4591620;19;20018;-75
2023/12/09 03:18:35;;;;;;;16.15;10.90;;;15.30;99.90;;;;;;4592656;19;20009;-75
2023/12/09 03:20:14;;;;;;;17.75;11.73;;;15.20;99.90;;;;;;4591536;19;20006;-75
2023/12/09 03:21:50;;;;;;;15.63;10.90;;;15.30;99.90;;;;;;4592189;19;20074;-74
2023/12/09 03:23:24;;;;;;;16.20;11.05;;;15.20;99.90;;;;;;4592583;19;19999;-75
2023/12/09 03:24:58;;;;;;;18.50;11.63;;;15.20;99.90;;;;;;4592576;19;20006;-75
2023/12/09 03:26:34;;;;;;;16.13;12.18;;;15.30;99.90;;;;;;4592102;19;20027;-75
2023/12/09 03:28:08;;;;;;;16.45;11.48;;;15.20;99.90;;;;;;4592527;19;20013;-75
2023/12/09 03:29:44;;;;;;;16.88;10.77;;;15.20;99.90;;;;;;4592704;19;20007;-75
2023/12/09 03:31:20;;;;;;;14.25;10.25;;;15.20;99.90;;;;;;4592471;19;20006;-75
2023/12/09 03:32:54;;;;;;;14.82;10.68;;;15.20;99.90;;;;;;4591021;19;20082;-75
2023/12/09 03:34:28;;;;;;;17.55;13.00;;;15.20;99.90;;;;;;4592029;19;20006;-75
2023/12/09 03:36:03;;;;;;;16.98;11.40;;;15.20;99.90;;;;;;4592403;19;20007;-75
2023/12/09 03:37:37;;;;;;;17.02;12.23;;;15.20;99.90;;;;;;4592353;19;20020;-75
2023/12/09 03:39:11;;;;;;;14.57;10.75;;;15.20;99.90;;;;;;4592245;19;20013;-75
2023/12/09 03:40:46;;;;;;;16.27;11.20;;;15.20;99.90;;;;;;4592606;19;20010;-75
2023/12/09 03:42:21;;;;;;;17.17;11.70;;;15.20;99.90;;;;;;4591293;19;20006;-75
2023/12/09 03:43:56;;;;;;;17.42;11.63;;;15.20;99.90;;;;;;4592149;19;20007;-75
2023/12/09 03:45:31;;;;;;;17.10;11.48;;;15.20;99.90;;;;;;4590928;19;20310;-75
2023/12/09 03:47:05;;;;;;;16.17;10.80;;;15.20;99.90;;;;;;4590965;19;20002;-75
2023/12/09 03:48:40;;;;;;;16.35;11.63;;;15.20;99.90;;;;;;4591962;19;20018;-75
2023/12/09 03:50:15;;;;;;;16.80;11.43;;;15.20;99.90;;;;;;4592136;19;20010;-75
2023/12/09 03:51:50;;;;;;;15.57;10.50;;;15.20;99.90;;;;;;4592057;19;20327;-75
2023/12/09 03:53:24;;;;;;;16.60;11.05;;;15.10;99.90;;;;;;4591931;19;20013;-75
2023/12/09 03:55:00;;;;;;;16.02;11.40;;;15.10;99.90;;;;;;4592751;19;20414;-75
2023/12/09 03:56:34;;;;;;;14.70;10.77;;;15.10;99.90;;;;;;4591522;19;20374;-75
2023/12/09 03:58:09;;;;;;;17.77;11.60;;;15.10;99.90;;;;;;4592220;19;20333;-75
2023/12/09 03:59:47;;;;;;;15.50;11.95;;;15.10;99.90;;;;;;4592019;19;20070;-75
2023/12/09 04:01:22;;;;;;;16.27;11.90;;;15.10;99.90;;;;;;4590683;19;20007;-75
2023/12/09 04:02:57;;;;;;;15.90;10.95;;;15.10;99.90;;;;;;4590696;19;20007;-75
2023/12/09 04:04:32;;;;;;;15.82;10.65;;;15.10;99.90;;;;;;4592014;19;20360;-75
2023/12/09 04:06:07;;;;;;;14.23;10.57;;;15.10;99.90;;;;;;4596003;19;20002;-75
2023/12/09 04:07:41;;;;;;;13.85;10.65;;;15.10;99.90;;;;;;4596518;19;20020;-75
2023/12/09 04:09:16;;;;;;;14.13;10.15;;;15.10;99.90;;;;;;4596587;19;20294;-75
2023/12/09 04:10:51;;;;;;;14.63;10.25;;;15.10;99.90;;;;;;4596524;19;19999;-75
2023/12/09 04:12:25;;;;;;;16.65;10.93;;;15.10;99.90;;;;;;4596766;19;20087;-75
2023/12/09 04:14:00;;;;;;;13.75;10.07;;;15.10;99.90;;;;;;4596756;19;20011;-76
2023/12/09 04:15:38;;;;;;;15.02;10.35;;;15.10;99.90;;;;;;4596447;19;20075;-75
2023/12/09 04:17:15;;;;;;;17.42;10.45;;;15.10;99.90;;;;;;4593711;19;20022;-75
2023/12/09 04:18:50;;;;;;;13.82;10.73;;;15.10;99.90;;;;;;4596142;19;20015;-75
2023/12/09 04:20:24;;;;;;;15.55;10.13;;;15.10;99.90;;;;;;4596579;19;20308;-74
2023/12/09 04:21:58;;;;;;;14.88;10.50;;;15.10;99.90;;;;;;4595583;19;20009;-75
2023/12/09 04:23:34;;;;;;;15.75;10.40;;;15.10;99.90;;;;;;4596298;19;20007;-75
2023/12/09 04:25:09;;;;;;;15.65;10.85;;;15.10;99.90;;;;;;4596263;19;20566;-75
2023/12/09 04:26:44;;;;;;;15.70;11.18;;;15.00;99.90;;;;;;4595285;19;20045;-74
2023/12/09 04:28:20;;;;;;;12.88;9.45;;;15.10;99.90;;;;;;4594950;19;20007;-74
2023/12/09 04:29:55;;;;;;;16.48;11.30;;;15.00;99.90;;;;;;4594751;19;20002;-74
2023/12/09 04:31:29;;;;;;;15.35;10.60;;;15.00;99.90;;;;;;4595794;19;20461;-77
2023/12/09 04:33:04;;;;;;;13.98;10.52;;;15.10;99.90;;;;;;4596495;19;20011;-76
2023/12/09 04:34:38;;;;;;;16.17;10.45;;;15.20;99.90;;;;;;4594748;19;20306;-75
2023/12/09 04:36:13;;;;;;;14.40;10.88;;;15.20;99.90;;;;;;4595611;19;20003;-77
2023/12/09 04:38:49;;;;;;;17.27;9.80;;;15.40;99.90;;;;;;4613133;19;20793;-75
2023/12/09 04:40:24;;;;;;;15.32;10.60;;;15.40;99.90;;;;;;4614660;19;20006;-73
2023/12/09 04:41:58;;;;;;;14.00;10.32;;;15.50;99.90;;;;;;4614474;19;20002;-73
2023/12/09 04:43:33;;;;;;;17.50;9.50;;;15.50;99.90;;;;;;4614833;19;20002;-73
2023/12/09 04:45:10;;;;;;;16.95;9.70;;;15.60;99.90;;;;;;4613198;19;20023;-73
2023/12/09 04:46:45;;;;;;;13.85;9.55;;;15.70;99.90;;;;;;4612524;19;20445;-73
2023/12/09 04:48:19;;;;;;;11.82;9.18;;;15.70;99.90;;;;;;4613065;19;20006;-73
2023/12/09 04:49:55;;;;;;;13.57;9.30;;;15.90;99.90;;;;;;4613151;19;20014;-73
2023/12/09 04:51:29;;;;;;;11.57;8.07;;;16.00;99.90;;;;;;4614008;19;20065;-73
2023/12/09 04:53:03;;;;;;;14.10;8.82;;;16.10;99.90;;;;;;4614339;19;19999;-73
2023/12/09 04:54:38;;;;;;;13.18;9.18;;;16.20;99.90;;;;;;4614264;19;20006;-73
2023/12/09 04:56:13;;;;;;;12.27;7.93;;;16.30;99.90;;;;;;4613916;19;20017;-73
2023/12/09 04:57:47;;;;;;;12.00;8.18;;;16.30;99.90;;;;;;4613188;19;20015;-73
2023/12/09 04:59:24;;;;;;;11.77;8.60;;;16.40;99.90;;;;;;4614576;19;20069;-73
2023/12/09 05:00:58;;;;;;;10.35;7.90;;;16.40;99.90;;;;;;4614246;19;20006;-73
2023/12/09 05:02:32;;;;;;;13.98;8.80;;;16.30;99.90;;;;;;4614488;19;20096;-73
2023/12/09 05:04:09;;;;;;;11.75;9.02;;;16.30;99.90;;;;;;4614312;19;20455;-73
2023/12/09 05:05:44;;;;;;;12.45;8.77;;;16.30;99.90;;;;;;4613168;19;20301;-73
2023/12/09 05:07:17;;;;;;;11.75;8.35;;;16.20;99.90;;;;;;4612115;19;20002;-73
2023/12/09 05:08:53;;;;;;;11.75;8.98;;;16.20;99.90;;;;;;4614095;19;20006;-73
2023/12/09 05:10:27;;;;;;;11.70;8.02;;;16.20;99.90;;;;;;4613944;19;20006;-74
2023/12/09 05:12:01;;;;;;;11.77;7.97;;;16.20;99.90;;;;;;4614021;19;20002;-74
2023/12/09 05:13:37;;;;;;;11.82;8.90;;;16.20;99.90;;;;;;4613986;19;20006;-74
2023/12/09 05:15:11;;;;;;;11.18;7.68;;;16.20;99.90;;;;;;4613939;19;20005;-74
2023/12/09 05:16:46;;;;;;;11.75;7.85;;;16.20;99.90;;;;;;4613225;19;20003;-74
2023/12/09 05:18:22;;;;;;;12.20;8.10;;;16.20;99.90;;;;;;4612302;19;20014;-74
2023/12/09 05:19:55;;;;;;;12.10;8.13;;;16.20;99.90;;;;;;4613530;19;20002;-74
2023/12/09 05:21:30;;;;;;;10.93;7.22;;;16.20;99.90;;;;;;4613767;19;20003;-73
2023/12/09 05:23:06;;;;;;;11.02;7.35;;;16.20;99.90;;;;;;4613811;19;20019;-73
2023/12/09 05:24:40;;;;;;;12.90;8.27;;;16.20;99.90;;;;;;4613704;19;20058;-73
2023/12/09 05:26:28;;;;;;;11.57;8.40;;;16.20;99.90;;;;;;4613367;19;20006;-73
2023/12/09 05:28:04;;;;;;;13.13;8.02;;;16.20;99.90;;;;;;4612419;19;20010;-73
2023/12/09 05:29:39;;;;;;;10.02;7.35;;;16.20;99.90;;;;;;4612295;19;20033;-73
2023/12/09 05:31:12;;;;;;;10.32;7.60;;;16.20;99.90;;;;;;4613272;19;19999;-73
2023/12/09 05:32:48;;;;;;;10.13;7.43;;;16.20;99.90;;;;;;4613979;19;20006;-74
2023/12/09 05:34:22;;;;;;;12.05;8.13;;;16.20;99.90;;;;;;4613411;19;20012;-73
2023/12/09 05:35:56;;;;;;;43.13;30.60;;;16.20;99.90;;;;;;4613596;19;20013;-73
2023/12/09 05:37:31;;;;;;;47.83;33.95;;;15.60;99.90;;;;;;4611177;19;20010;-74
2023/12/09 05:39:05;;;;;;;48.47;32.45;;;14.30;99.90;;;;;;4612119;19;20006;-73
2023/12/09 05:40:40;;;;;;;49.25;32.72;;;13.20;99.90;;;;;;4612760;19;20023;-73
2023/12/09 05:42:15;;;;;;;45.27;30.20;;;12.50;99.90;;;;;;4613365;19;20065;-73
2023/12/09 05:43:49;;;;;;;47.30;32.50;;;11.90;99.90;;;;;;4611843;19;20058;-73
2023/12/09 05:45:23;;;;;;;55.53;33.43;;;11.40;99.90;;;;;;4612745;19;20006;-73
2023/12/09 05:46:58;;;;;;;47.23;30.97;;;11.00;99.90;;;;;;4612087;19;20033;-73
2023/12/09 05:48:38;;;;;;;49.30;31.60;;;10.70;99.90;;;;;;4613157;19;20035;-73
2023/12/09 05:50:12;;;;;;;50.63;31.53;;;10.40;99.90;;;;;;4594434;19;20358;-72
2023/12/09 05:51:48;;;;;;;53.07;33.70;;;10.20;99.90;;;;;;4595350;19;20369;-73
2023/12/09 05:53:23;;;;;;;49.50;32.00;;;10.00;99.90;;;;;;4595230;19;20922;-73
2023/12/09 05:54:56;;;;;;;50.27;32.07;;;9.90;99.90;;;;;;4594161;19;20392;-73
2023/12/09 05:56:33;;;;;;;50.03;31.40;;;9.90;99.90;;;;;;4594356;19;20402;-73
2023/12/09 05:58:07;;;;;;;54.20;32.70;;;9.80;99.90;;;;;;4594235;19;20512;-73
2023/12/09 05:59:41;;;;;;;50.40;31.83;;;9.70;99.90;;;;;;4595187;19;20442;-73
2023/12/09 06:01:18;;;;;;;54.00;34.03;;;9.70;99.90;;;;;;4595144;19;20373;-73
2023/12/09 06:02:52;;;;;;;54.60;32.00;;;9.70;99.90;;;;;;4595291;19;20536;-73
2023/12/09 06:04:26;;;;;;;52.70;32.77;;;9.60;99.90;;;;;;4595221;19;20401;-73
2023/12/09 06:06:02;;;;;;;61.90;36.47;;;9.60;99.90;;;;;;4595464;19;20416;-73
2023/12/09 06:07:37;;;;;;;117.57;68.13;;;9.60;99.90;;;;;;4593568;19;20431;-73
2023/12/09 06:09:12;;;;;;;68.10;43.77;;;9.50;99.90;;;;;;4594860;19;20397;-73
2023/12/09 06:10:47;;;;;;;58.67;39.23;;;9.50;99.90;;;;;;4594897;19;20423;-73
2023/12/09 06:12:21;;;;;;;53.87;35.07;;;9.50;99.90;;;;;;4595097;19;20393;-73
2023/12/09 06:13:57;;;;;;;48.63;30.70;;;9.50;99.90;;;;;;4594802;19;20958;-73
2023/12/09 06:15:32;;;;;;;49.97;30.73;;;9.40;99.90;;;;;;4595164;19;20400;-73
2023/12/09 06:17:07;;;;;;;50.37;31.13;;;9.40;99.90;;;;;;4593870;19;20449;-73
2023/12/09 06:18:41;;;;;;;49.70;29.73;;;9.40;99.90;;;;;;4594681;19;20713;-73
2023/12/09 06:20:16;;;;;;;54.57;31.43;;;9.40;99.90;;;;;;4594650;19;20433;-73
2023/12/09 06:21:50;;;;;;;58.60;35.50;;;9.80;99.90;;;;;;4594516;19;20477;-74
2023/12/09 06:23:24;;;;;;;59.43;35.67;;;10.20;99.90;;;;;;4594696;19;20417;-73
2023/12/09 06:25:00;;;;;;;51.53;32.50;;;10.60;99.90;;;;;;4594542;19;20396;-72
2023/12/09 06:26:35;;;;;;;55.20;34.37;;;10.90;99.90;;;;;;4593680;19;20823;-74
2023/12/09 06:28:10;;;;;;;57.43;37.63;;;11.20;99.90;;;;;;4592911;19;20469;-73
2023/12/09 06:29:46;;;;;;;54.07;33.77;;;11.50;99.90;;;;;;4594129;19;20883;-73
2023/12/09 06:31:22;;;;;;;53.87;33.40;;;11.80;99.90;;;;;;4594267;19;20421;-74
2023/12/09 06:32:57;;;;;;;54.10;34.47;;;12.20;99.90;;;;;;4594689;19;20388;-73
2023/12/09 06:34:32;;;;;;;50.47;33.77;;;12.50;99.80;;;;;;4594685;19;20373;-74
2023/12/09 06:36:08;;;;;;;56.40;33.20;;;12.70;99.30;;;;;;4592771;19;20007;-73
2023/12/09 06:37:43;;;;;;;57.43;39.23;;;13.00;98.70;;;;;;4593328;19;20025;-73
2023/12/09 06:39:19;;;;;;;57.47;37.53;;;13.30;98.10;;;;;;4594383;19;20311;-73
2023/12/09 06:40:53;;;;;;;53.47;33.97;;;13.50;97.70;;;;;;4594292;19;20002;-73
2023/12/09 06:42:27;;;;;;;46.67;30.43;;;13.70;97.20;;;;;;4594525;19;20009;-74
2023/12/09 06:44:04;;;;;;;54.17;34.90;;;13.90;96.90;;;;;;4594292;19;20010;-73
2023/12/09 06:45:38;;;;;;;48.20;33.80;;;14.10;96.50;;;;;;4593105;19;20002;-73
2023/12/09 06:47:13;;;;;;;52.10;34.90;;;14.30;96.00;;;;;;4592469;19;20434;-73
2023/12/09 06:48:48;;;;;;;50.93;33.83;;;14.40;95.70;;;;;;4594378;19;20002;-73
2023/12/09 06:50:23;;;;;;;49.55;32.88;;;14.50;95.40;;;;;;4594345;19;20469;-73
2023/12/09 06:51:57;;;;;;;51.10;34.03;;;14.60;95.00;;;;;;4594297;19;19998;-73
2023/12/09 06:53:32;;;;;;;54.92;37.85;;;14.70;94.70;;;;;;4594139;19;20007;-73
2023/12/09 06:55:08;;;;;;;51.22;36.83;;;14.80;94.50;;;;;;4593937;19;20309;-73
2023/12/09 06:56:44;;;;;;;51.60;36.60;;;14.80;94.20;;;;;;4593522;19;20002;-74
2023/12/09 06:58:19;;;;;;;58.45;40.95;;;14.80;94.00;;;;;;4593187;19;20003;-73
2023/12/09 06:59:56;;;;;;;54.58;37.80;;;14.90;93.80;;;;;;4592816;19;20003;-74
2023/12/09 07:01:30;;;;;;;53.75;36.95;;;14.90;93.60;;;;;;4591172;19;20021;-73
2023/12/09 07:03:05;;;;;;;51.33;35.95;;;14.90;93.60;;;;;;4593909;19;20030;-73
2023/12/09 07:04:39;;;;;;;61.15;39.95;;;14.90;93.40;;;;;;4593781;19;20369;-73
2023/12/09 07:06:13;;;;;;;63.47;44.47;;;14.90;93.40;;;;;;4593502;19;20326;-73
2023/12/09 07:07:50;;;;;;;58.30;41.10;;;14.80;93.20;;;;;;4593817;19;19999;-73
2023/12/09 07:09:24;;;;;;;58.80;39.67;;;14.80;93.10;;;;;;4593742;19;20006;-73
2023/12/09 07:10:59;;;;;;;57.50;39.30;;;14.80;93.10;;;;;;4593674;19;20002;-73
2023/12/09 07:12:34;;;;;;;62.35;43.35;;;14.80;93.10;;;;;;4593630;19;20310;-73
2023/12/09 07:14:13;;;;;;;56.80;39.70;;;14.80;93.00;;;;;;4593585;19;20003;-73
2023/12/09 07:15:49;;;;;;;52.47;36.03;;;14.80;93.00;;;;;;4592220;19;20126;-73
2023/12/09 07:17:30;;;;;;;48.35;35.67;;;14.80;92.90;;;;;;4591942;19;20014;-73
2023/12/09 07:19:06;;;;;;;51.47;37.65;;;14.80;92.90;;;;;;4592431;19;20030;-74
2023/12/09 07:20:40;;;;;;;51.17;35.72;;;14.70;92.80;;;;;;4593456;19;20006;-73
2023/12/09 07:22:16;;;;;;;48.25;33.72;;;14.70;92.70;;;;;;4593483;19;20358;-73
2023/12/09 07:23:52;;;;;;;50.78;33.60;;;14.70;92.70;;;;;;4593364;19;20006;-73
2023/12/09 07:25:27;;;;;;;47.50;34.22;;;14.70;92.60;;;;;;4593362;19;19999;-73
2023/12/09 07:27:03;;;;;;;52.50;36.50;;;14.70;92.60;;;;;;4592545;19;20059;-73
2023/12/09 07:28:38;;;;;;;50.15;36.97;;;14.70;92.60;;;;;;4593311;19;19998;-73
2023/12/09 07:30:14;;;;;;;47.70;33.05;;;14.70;92.70;;;;;;4593246;19;20002;-73
2023/12/09 07:31:49;;;;;;;51.47;36.30;;;14.60;92.60;;;;;;4593369;19;20456;-74
2023/12/09 07:33:23;;;;;;;47.67;32.42;;;14.60;92.60;;;;;;4593231;19;19994;-73
2023/12/09 07:34:57;;;;;;;48.00;34.55;;;14.60;92.50;;;;;;4593412;19;20003;-73
2023/12/09 07:36:33;;;;;;;51.22;34.42;;;14.60;92.50;;;;;;4591294;19;20021;-73
2023/12/09 07:38:07;;;;;;;51.05;33.03;;;14.60;92.60;;;;;;4591740;19;20365;-73
2023/12/09 07:39:41;;;;;;;46.75;33.58;;;14.60;92.60;;;;;;4593065;19;20086;-73
2023/12/09 07:41:17;;;;;;;49.53;34.60;;;14.50;92.50;;;;;;4591752;19;20155;-74
2023/12/09 07:42:52;;;;;;;50.05;35.08;;;14.50;92.50;;;;;;4592968;19;20006;-74
2023/12/09 07:44:26;;;;;;;49.55;33.17;;;14.50;92.50;;;;;;4592903;19;20002;-73
2023/12/09 07:46:01;;;;;;;52.92;36.50;;;14.50;92.50;;;;;;4593032;19;20003;-73
2023/12/09 07:47:35;;;;;;;46.92;33.10;;;14.50;92.60;;;;;;4592863;19;20019;-73
2023/12/09 07:49:09;;;;;;;50.08;33.50;;;14.40;92.60;;;;;;4592861;19;20003;-74
2023/12/09 07:50:45;;;;;;;45.95;33.50;;;14.50;92.60;;;;;;4592876;19;20076;-73
2023/12/09 07:52:20;;;;;;;47.58;32.83;;;14.40;92.60;;;;;;4591499;19;20006;-73
2023/12/09 07:53:55;;;;;;;48.10;33.50;;;14.40;92.60;;;;;;4592750;19;19999;-73
2023/12/09 07:55:31;;;;;;;58.80;40.58;;;14.40;92.50;;;;;;4593340;19;20018;-73
2023/12/09 07:57:05;;;;;;;52.47;35.65;;;14.40;92.50;;;;;;4591926;19;20003;-73
2023/12/09 07:58:39;;;;;;;52.70;38.25;;;14.40;92.50;;;;;;4591645;19;20069;-73
2023/12/09 08:00:15;;;;;;;47.65;34.83;;;14.40;92.80;;;;;;4592768;19;20023;-73
2023/12/09 08:01:50;;;;;;;52.83;35.58;;;14.30;92.60;;;;;;4592754;19;20002;-73
2023/12/09 08:03:24;;;;;;;49.38;34.00;;;14.30;92.60;;;;;;4592632;19;20019;-73
2023/12/09 08:05:01;;;;;;;51.92;37.22;;;14.30;92.60;;;;;;4592673;19;20029;-73
2023/12/09 08:06:36;;;;;;;49.50;34.70;;;14.30;92.60;;;;;;4592097;19;20003;-73
2023/12/09 08:08:10;;;;;;;52.83;36.80;;;14.30;92.60;;;;;;4592817;19;20009;-73
2023/12/09 08:09:46;;;;;;;55.28;38.33;;;14.30;92.60;;;;;;4593224;19;20294;-73
2023/12/09 08:11:20;;;;;;;55.28;39.45;;;14.30;92.60;;;;;;4592541;19;19999;-73
2023/12/09 08:12:54;;;;;;;64.25;44.97;;;14.20;92.60;;;;;;4591788;19;20302;-73
2023/12/09 08:14:29;;;;;;;64.75;46.33;;;14.20;92.60;;;;;;4592759;19;20426;-73
2023/12/09 08:16:04;;;;;;;65.18;45.35;;;14.20;92.60;;;;;;4592505;19;20003;-73
2023/12/09 08:17:39;;;;;;;62.92;44.90;;;14.20;92.60;;;;;;4592365;19;20022;-73
2023/12/09 08:19:15;;;;;;;56.22;40.65;;;14.20;92.60;;;;;;4590884;19;20015;-73
2023/12/09 08:20:49;;;;;;;57.97;40.67;;;14.20;92.50;;;;;;4591964;19;20366;-73